Airfield :
LOGIN :

Register | Disclaimer

   EN    FR    IT 

 










Legend :    VFR   Marginal VFR   IFR   Intensive IFR   Very Intensive IFR
Visi :
Ceiling :
>= 8 km
>= 3000ft
5 to 8 km
1000 to 3000 ft
1500m to 5 km
500 to 1000 ft
800 to 1500m
200 to 500 ft
< 800m
< 200 ft
Symbols :   Thunderstorms  Fog  Heavy snow  Heavy precipitations  Wind > 20 kt
SIGMETs :     Misc.  Thunderstorms  Icing  Turbulence  Mountain Waves  Volcanic Ashes







- Airport Elevation : 468 ft
- IATA code : GRO


LEGE - Girona Costa Brava

CURRENT METAR :
  • 210100Z 01004KT 330V030 5000 BCFG FEW010 08/08 Q1004

EXPIRED METARs :
  • 210030Z 33003KT 250V010 5000 BCFG FEW010 08/08 Q1004
  • 210000Z VRB01KT 9999 FEW070 08/08 Q1004
  • 202330Z 00000KT 9999 FEW090 09/09 Q1003
  • 202300Z 05004KT 9999 FEW080 09/09 Q1003
  • 202230Z VRB02KT 9999 FEW070 09/09 Q1002

TAF TAF LEGE
Valid from the 21 at 00:00 until the 22 at 00:00 UTC


202300Z 2100/2124 VRB03KT 9999 FEW020 TX17/2113Z TN04/2106Z
PROB40
TEMPO 2100/2107 0800 BCFG VV002
TEMPO 2102/2105 34007KT
TEMPO 2111/2115 18007KT
No reported NOTAMs for that airfield.
3 SIGMETs reported for the Barcelona FIR (LECB) :
 
Embedded thunderstorms
LECB SIGMET 16 VALID 202200/202400 LEVA
LECB BARCELONA FIR/UIR EMBD TS OBS AT 2159Z E OF LINE N4209 E00323 - N3806 E00241 TOP FL360 MOV NE 25KT NC=
SIGMET 14 cancelation
LECB SIGMET 15 VALID 202158/240100 LEVA
LECB BARCELONA FIR/UIR CNL SIGMET 14 VALID 202200/240100=
SIGMET 14  CANCELED :
Embedded thunderstorms
LECB SIGMET 14 VALID 202200/240100 LEVA
LECB BARCELONA FIR/UIR EMBD TS OBS AT 2151Z E OF LINE N4212 E00319 - N3805 E00240 TOP FL320 MOV NE NC=



MET'MAP, your aeronautical weather chart ! - Copyright ORBIFLY December 2007 - Disclaimer

ORBIFLY MET'MAP TEAM :

Programming & Development : Alexandra Zaïnal
Concept & Development : Baudouin d'Aumeries
Co-Development & Prog : Marc-Olivier Méhu
Technical & hardware support : Manuel Goepfert

Contact : metmap@orbifly.com




SOURCES & CREDITS :

   NOAA